Insider Urges: Get Out Of Cash Before April 27th
Chris Rowe says there’s a huge stock market event looming - and he’s revealing his #1 pick for free.
Click here to find out more.
pixel

BATRA Insider Trading (The Liberty Braves Group)

Insider Ownership Percentage: N/A
Insider Buying (Last 12 Months): $0.00
Insider Selling (Last 12 Months): $30,797,914.19

The Liberty Braves Group Insider Trading History Chart

The Liberty Braves Group Share Price & Price History

$29.52
▼ -0.66 (-2.19%)
As of 04/9/2021 01:00 AM ET
Days: 30 | 90 | 365
#1 trading secret
He started as a janitor’s grandson… and ended up becoming a million dollar hedge fund insider... Now he’s revealing the #1 trading secret he learned during his time on Wall Street…
Continue Reading
pixel

The Liberty Braves Group Insider Trading History

Transaction DateInsider NameTitleBuy/SellNumber of SharesAverage Share PriceTotal TransactionShares Held After TransactionDetails
3/4/2021David E RapleyDirectorSell1,125$44.16$49,680.007,638  
12/2/2020John C MaloneChairmanSell79,071$41.18$3,256,143.7813,816,239  
11/30/2020John C MaloneChairmanSell49,399$41.28$2,039,190.7213,882,074  
11/27/2020John C MaloneChairmanSell16,536$42.21$697,984.5613,882,074  
11/25/2020John C MaloneChairmanSell70,293$41.59$2,923,485.8713,952,567  
11/23/2020John C MaloneChairmanSell126,980$42.70$5,422,046.002,583,507  
11/20/2020John C MaloneChairmanSell233,744$37.01$8,650,865.442,583,507  
11/18/2020John C. MaloneChairmanSell186,588$41.19$7,685,559.72  
8/13/2020David E RapleyDirectorSell2,021$36.10$72,958.108,001  
3/18/2020Gamco Investors, Inc. Et AlMajor ShareholderBuy4,000$16.18$64,720.00
1/24/2020Gamco Investors, Inc. Et AlMajor ShareholderBuy1,200$29.56$35,472.00
1/22/2020Gamco Investors, Inc. Et AlMajor ShareholderBuy1,000$29.50$29,500.00
11/22/2019Gamco Investors, Inc. Et AlMajor ShareholderBuy243,812$15.02$3,662,056.24
12/31/2018Gamco Investors, Inc. Et AlMajor ShareholderBuy1,000$24.82$24,820.00  
11/27/2018Gamco Investors, Inc. Et AlMajor ShareholderBuy6,400$24.59$157,376.00  
11/20/2018Gamco Investors, Inc. Et AlMajor ShareholderBuy5,600$23.86$133,616.00  
11/7/2018Gamco Investors, Inc. Et AlMajor ShareholderBuy8,000$25.89$207,120.00  
See Full Table

SEC Filings (Institutional Ownership Changes) for The Liberty Braves Group (NASDAQ:BATRA)

74.61% of The Liberty Braves Group stock is owned by institutions. Institutional ownership can be a sign of analyst confidence in the fundamentals of the stock.

Institutional Buying and Selling by Quarter

The Liberty Braves Group Institutional Trading History

Reporting DateHedge FundShares HeldMarket Value% of PortfolioQuarterly Change in SharesOwnership in Company
3/8/2021Dimensional Fund Advisors LP280,828$6.99M0.0%+4.8%2.723%
3/2/2021Norges Bank140,764$3.50M0.0%N/A1.365%
2/25/2021Dimensional Fund Advisors LP280,828$6.99M0.0%+4.8%2.723%
2/19/2021JPMorgan Chase & Co.160,665$4M0.0%+14.6%1.558%
2/16/2021Morgan Stanley232,457$5.78M0.0%+56.2%2.254%
2/16/2021Poehling Capital Management LLC82,225$2.05M0.8%N/A0.797%
2/16/2021Charles Schwab Investment Management Inc.66,806$1.66M0.0%+1.6%0.648%
2/12/2021Epoch Investment Partners Inc.325,910$8.11M0.0%+43.9%3.160%
2/12/2021Credit Suisse AG20,997$0.52M0.0%+24.3%0.204%
2/12/2021Regal Investment Advisors LLC22,714$0.57M0.1%N/A0.220%
2/11/2021Northern Trust Corp127,193$3.16M0.0%-2.8%1.233%
2/11/2021Barclays PLC4,734$0.12M0.0%-42.3%0.046%
2/11/2021Citigroup Inc.3,652$91K0.0%+79.7%0.035%
2/10/2021Renaissance Technologies LLC332,800$8.28M0.0%+11.6%3.227%
2/10/2021Panagora Asset Management Inc.18,872$0.47M0.0%N/A0.183%
2/9/2021Wells Fargo & Company MN120,381$2.99M0.0%+3.5%1.167%
2/9/2021Bessemer Group Inc.2,500$62K0.0%+316.7%0.024%
2/8/2021Alliancebernstein L.P.19,340$0.48M0.0%-5.8%0.188%
2/8/2021Russell Investments Group Ltd.17,277$0.43M0.0%-96.9%0.168%
2/5/2021Gamco Investors INC. ET AL1,779,454$44.26M0.4%-0.5%17.254%
2/5/2021Gabelli Funds LLC371,624$9.24M0.1%+2.5%3.603%
2/5/2021BlackRock Inc.714,502$17.77M0.0%-0.9%6.928%
2/5/2021SG Americas Securities LLC59,757$1.49M0.0%+8.1%0.579%
2/4/2021RB Capital Management LLC9,700$0.24M0.1%-4.9%0.094%
11/23/2020Eudaimonia Partners LLC4,950$0.16M0.0%N/A0.048%
11/16/2020Eudaimonia Partners LLC4,950$0.16M0.0%N/A0.048%
11/16/2020Boothbay Fund Management LLC54,428$1.14M0.1%N/A0.528%
11/13/2020Epoch Investment Partners Inc.226,531$4.73M0.0%+50.5%2.197%
11/13/2020Morgan Stanley148,803$3.11M0.0%-1.3%1.443%
11/13/2020Charles Schwab Investment Management Inc.65,740$1.37M0.0%+1.2%0.637%
11/12/2020JPMorgan Chase & Co.140,148$2.85M0.0%+23.2%1.359%
11/12/2020Arrowstreet Capital Limited Partnership16,673$0.35M0.0%-60.0%0.162%
11/12/2020RB Capital Management LLC10,200$0.22M0.1%-15.0%0.099%
11/10/2020State Street Corp208,964$4.36M0.0%-6.1%2.026%
11/9/2020SG Americas Securities LLC55,275$1.15M0.0%-12.6%0.536%
11/9/2020The Manufacturers Life Insurance Company9,956$0.21M0.0%N/A0.097%
11/6/2020BlackRock Inc.720,986$15.06M0.0%-5.9%6.991%
11/6/2020Gamco Investors INC. ET AL1,788,599$37.35M0.4%+6.3%17.343%
11/6/2020Gabelli Funds LLC362,400$7.57M0.1%+10.7%3.514%
11/6/2020Principal Financial Group Inc.173,971$3.63M0.0%-2.0%1.687%
11/5/2020California Public Employees Retirement System21,300$0.45M0.0%-3.9%0.207%
11/5/2020Wells Fargo & Company MN116,351$2.43M0.0%+6.6%1.128%
11/5/2020Roundview Capital LLC146,103$3.05M0.5%+2.8%1.417%
10/30/2020BNP Paribas Arbitrage SA2,432$51K0.0%+473.6%0.024%
10/23/2020Pinnacle Associates Ltd.47,978$1M0.0%+35.2%0.465%
10/20/2020Nisa Investment Advisors LLC3,350$70K0.0%N/A0.032%
8/28/2020PNC Financial Services Group Inc.25,875$0.52M0.0%-2.1%0.251%
8/25/2020Nuveen Asset Management LLC37,510$0.75M0.0%-53.2%0.364%
8/20/2020Charles Schwab Investment Management Inc.64,946$1.31M0.0%+9.9%0.630%
8/14/2020Pinnacle Associates Ltd.35,478$0.71M0.0%+28.0%0.344%
8/14/2020Bank of America Corp DE5,418$0.11M0.0%+27.8%0.053%
8/14/2020Gilder Gagnon Howe & Co. LLC131,054$2.63M0.0%-8.3%1.271%
8/14/2020Third Avenue Management LLC122,715$2.47M0.3%+78.6%1.190%
8/13/2020Gabelli Funds LLC327,400$6.57M0.1%+7.6%3.175%
8/13/2020Epoch Investment Partners Inc.150,554$3.02M0.0%N/A1.460%
8/13/2020Gamco Investors INC. ET AL1,683,010$33.80M0.4%-4.9%16.319%
8/7/2020PNC Financial Services Group Inc.25,875$0.52M0.0%-2.1%0.251%
8/7/2020New York State Common Retirement Fund10,050$0.20M0.0%-99.9%0.097%
8/5/2020Swiss National Bank18,422$0.37M0.0%+8.9%0.179%
7/31/2020RB Capital Management LLC12,000$0.24M0.1%-4.8%0.116%
7/28/2020Zurcher Kantonalbank Zurich Cantonalbank2,340$47K0.0%+75.9%0.023%
7/20/2020SG Americas Securities LLC63,272$1.27M0.0%+6.9%0.614%
7/15/2020Chickasaw Capital Management LLC73,983$1.49M0.1%-22.9%0.717%
6/16/2020Royal Bank of Canada14,531$0.28M0.0%+32.6%0.141%
5/27/2020Public Employees Retirement Association of Colorado2,657$52K0.0%+38.0%0.026%
5/26/2020Morgan Stanley117,431$2.29M0.0%-95.9%1.139%
5/18/2020Colony Group LLC92,571$1.81M0.1%-1.8%0.898%
5/15/2020Park West Asset Management LLC576,820$11.25M0.8%-14.8%5.593%
5/15/2020Engineers Gate Manager LP15,906$0.31M0.0%+55.3%0.154%
5/15/2020Morgan Stanley117,431$2.29M0.0%-95.9%1.139%
5/15/2020CSS LLC IL7,079$0.14M0.0%-82.1%0.069%
5/14/2020Gabelli Funds LLC304,400$5.94M0.1%+5.4%2.952%
5/14/2020Wells Fargo & Company MN119,843$2.34M0.0%+36.7%1.162%
5/14/2020Gamco Investors INC. ET AL1,769,627$34.51M0.4%+17.0%17.159%
5/14/2020Geode Capital Management LLC88,780$1.73M0.0%+2.8%0.861%
5/14/2020Deutsche Bank AG104,868$2.05M0.0%-98.5%1.017%
5/14/2020Alliancebernstein L.P.19,540$0.38M0.0%+21.1%0.189%
5/13/2020Parametric Portfolio Associates LLC18,962$0.37M0.0%+109.7%0.184%
5/13/2020BNP Paribas Arbitrage SA3,138$61K0.0%+107.5%0.030%
5/13/2020Horizon Kinetics Asset Management LLC60,958$1.19M0.1%-14.1%0.591%
5/13/2020Pinnacle Associates Ltd.27,728$0.54M0.0%-2.5%0.269%
5/12/2020Citigroup Inc.4,399$86K0.0%-11.4%0.043%
5/12/2020Principal Financial Group Inc.177,614$3.46M0.0%+1.1%1.723%
5/12/2020Victory Capital Management Inc.7,804$0.15M0.0%-20.9%0.076%
5/12/2020JPMorgan Chase & Co.122,190$2.38M0.0%-16.1%1.185%
5/11/2020Acadian Asset Management LLC2,470$48K0.0%N/A0.024%
5/11/2020Roundview Capital LLC137,547$2.68M0.6%+6.3%1.334%
5/8/2020PNC Financial Services Group Inc.26,423$0.52M0.0%+37.8%0.256%
5/8/2020Swiss National Bank16,922$0.33M0.0%+3.7%0.164%
5/6/2020Russell Investments Group Ltd.17,145$0.33M0.0%N/A0.166%
5/5/2020Aperio Group LLC10,440$0.20M0.0%-8.2%0.101%
5/4/2020Victory Capital Management Inc.7,804$0.15M0.0%-20.9%0.076%
5/2/2020SG Americas Securities LLC59,195$1.15M0.0%N/A0.574%
5/1/2020BlackRock Inc.688,776$13.43M0.0%-1.3%6.679%
5/1/2020Public Employees Retirement Association of Colorado2,657$52K0.0%+38.0%0.026%
5/1/2020UBS Group AG90,706$1.77M0.0%-11.7%0.880%
4/6/2020Chickasaw Capital Management LLC95,983$1.87M0.1%-18.1%0.931%
3/5/2020Nuveen Asset Management LLC80,348$2.38M0.0%+101.9%0.779%
3/3/2020Norges Bank328,742$9.75M0.0%N/A3.189%
2/26/2020Sunbelt Securities Inc.1,146$8.50M0.1%N/A0.011%
Data available starting January 2016

See Full Table
The Liberty Braves Group logo
The Liberty Braves Group, through its subsidiary, Braves Holdings, LLC, owns the Atlanta Braves Major League Baseball Club (ANLBC), assets and liabilities associated with ANLBC's stadium, and mixed use development project. The company is based in Englewood, Colorado. The Liberty Braves Group is a subsidiary of Liberty Media Corporation.
Read More

Today's Range

Now: $29.52
$29.39
$30.07

50 Day Range

MA: $30.14
$28.40
$32.27

52 Week Range

Now: $29.52
$17.19
$34.99

Volume

39,951 shs

Average Volume

53,269 shs

Market Capitalization

$304.44 million

P/E Ratio

N/A

Dividend Yield

N/A

Beta

1

Who are the company insiders with the largest holdings of The Liberty Braves Group?

The Liberty Braves Group's top insider investors include:
  1. John C Malone (Chairman)
  2. David E Rapley (Director)
  3. Gamco Investors, Inc Et Al (Major Shareholder)
  4. John C Malone (Chairman)
Get out of cash NOW
Millionaire Wall Street Legend Urges Americans To Get Out Of CASH before April 27th.
Details here.
pixel